Time;durP1;ratioP1;P1;durP2;ratioP2;P2;SDS_P1;SDS_P2;PMS_P1;PMS_P2;Temp;Humidity;BMP_temperature;BMP_pressure;BME280_temperature;BME280_humidity;BME280_pressure;Samples;Min_cycle;Max_cycle;Signal;HPM_P1;HPM_P2
2021/08/11 00:00:56;;;;;;;;;4.00;4.00;;;;;;;;5079186;28;48103;-84
2021/08/11 00:03:22;;;;;;;;;3.00;3.00;;;;;;;;5081763;28;45467;-83
2021/08/11 00:05:47;;;;;;;;;4.25;4.25;;;;;;;;5081908;28;45405;-84
2021/08/11 00:08:12;;;;;;;;;3.50;3.00;;;;;;;;5076868;28;45511;-84
2021/08/11 00:10:37;;;;;;;;;5.00;5.00;;;;;;;;5067633;28;45385;-84
2021/08/11 00:13:03;;;;;;;;;5.00;5.00;;;;;;;;5068009;28;45817;-84
2021/08/11 00:15:28;;;;;;;;;4.25;3.00;;;;;;;;5081585;28;45408;-85
2021/08/11 00:17:53;;;;;;;;;4.00;4.00;;;;;;;;5078213;28;46231;-85
2021/08/11 00:20:18;;;;;;;;;4.67;3.67;;;;;;;;5081761;28;46029;-83
2021/08/11 00:22:43;;;;;;;;;4.67;4.33;;;;;;;;5082448;28;45317;-85
2021/08/11 00:25:09;;;;;;;;;3.67;3.33;;;;;;;;5082971;28;45305;-83
2021/08/11 00:27:34;;;;;;;;;6.00;3.50;;;;;;;;5082372;28;45462;-84
2021/08/11 00:30:01;;;;;;;;;3.00;3.00;;;;;;;;5082390;28;46066;-84
2021/08/11 00:32:26;;;;;;;;;3.75;3.75;;;;;;;;5085555;28;45741;-84
2021/08/11 00:34:51;;;;;;;;;5.75;4.00;;;;;;;;5082894;28;45180;-84
2021/08/11 00:37:16;;;;;;;;;6.75;3.75;;;;;;;;5082433;28;45280;-85
2021/08/11 00:39:43;;;;;;;;;3.50;2.75;;;;;;;;5082032;28;45990;-85
2021/08/11 00:42:08;;;;;;;;;4.00;3.00;;;;;;;;5081272;28;45435;-84
2021/08/11 00:44:33;;;;;;;;;5.00;3.00;;;;;;;;5082587;28;45415;-84
2021/08/11 00:46:59;;;;;;;;;5.33;4.00;;;;;;;;5082245;28;45544;-85
2021/08/11 00:49:24;;;;;;;;;3.75;3.75;;;;;;;;5073666;28;48108;-85
2021/08/11 00:51:50;;;;;;;;;5.00;4.33;;;;;;;;5079518;28;45498;-85
2021/08/11 00:54:16;;;;;;;;;6.00;3.50;;;;;;;;5082564;28;45316;-84
2021/08/11 00:56:43;;;;;;;;;5.50;3.75;;;;;;;;5080882;28;45398;-84
2021/08/11 00:59:09;;;;;;;;;3.50;3.00;;;;;;;;5080614;28;45403;-85
2021/08/11 01:01:36;;;;;;;;;3.00;3.00;;;;;;;;5082167;28;45426;-84
2021/08/11 01:04:02;;;;;;;;;3.00;3.00;;;;;;;;5082416;28;45243;-85
2021/08/11 01:06:31;;;;;;;;;3.25;3.00;;;;;;;;5081691;28;45432;-84
2021/08/11 01:08:56;;;;;;;;;3.00;2.50;;;;;;;;5071280;28;46005;-85
2021/08/11 01:11:23;;;;;;;;;3.00;3.00;;;;;;;;5075331;27;45748;-85
2021/08/11 01:13:48;;;;;;;;;4.00;2.25;;;;;;;;5077130;28;45397;-84
2021/08/11 01:16:13;;;;;;;;;1.75;1.75;;;;;;;;5084215;28;45310;-85
2021/08/11 01:18:39;;;;;;;;;3.50;2.00;;;;;;;;5074481;28;47320;-85
2021/08/11 01:21:13;;;;;;;;;3.00;2.00;;;;;;;;5080565;28;45297;-85
2021/08/11 01:23:42;;;;;;;;;3.00;3.00;;;;;;;;5082096;28;45516;-85
2021/08/11 01:26:13;;;;;;;;;1.75;1.25;;;;;;;;5078826;28;45550;-85
2021/08/11 01:28:45;;;;;;;;;4.00;3.00;;;;;;;;5081738;28;45367;-85
2021/08/11 01:31:10;;;;;;;;;1.00;1.00;;;;;;;;5081861;28;45421;-85
2021/08/11 01:33:53;;;;;;;;;3.00;3.00;;;;;;;;5079363;28;45537;-85
2021/08/11 01:36:31;;;;;;;;;1.00;1.00;;;;;;;;5070254;28;45694;-85
2021/08/11 01:39:08;;;;;;;;;2.00;2.00;;;;;;;;5080126;28;47460;-84
2021/08/11 01:41:35;;;;;;;;;5.00;2.50;;;;;;;;5081484;28;45262;-85
2021/08/11 01:44:01;;;;;;;;;5.50;2.00;;;;;;;;5081586;28;45206;-84
2021/08/11 01:46:28;;;;;;;;;2.50;2.50;;;;;;;;5071093;28;45530;-85
2021/08/11 01:48:56;;;;;;;;;2.50;2.50;;;;;;;;5081335;28;46134;-84
2021/08/11 01:51:21;;;;;;;;;2.00;2.00;;;;;;;;5080061;28;45382;-84
2021/08/11 01:53:46;;;;;;;;;4.00;2.00;;;;;;;;5075505;28;45594;-84
2021/08/11 01:56:14;;;;;;;;;0.33;0.33;;;;;;;;5080124;28;46268;-85
2021/08/11 01:58:40;;;;;;;;;3.00;2.25;;;;;;;;5081793;28;47049;-85
2021/08/11 02:01:07;;;;;;;;;3.00;2.00;;;;;;;;5075143;28;45250;-84
2021/08/11 02:03:32;;;;;;;;;2.00;2.00;;;;;;;;5078549;28;45241;-84
2021/08/11 02:05:57;;;;;;;;;2.00;2.00;;;;;;;;5083797;28;45397;-85
2021/08/11 02:08:24;;;;;;;;;1.00;1.00;;;;;;;;5068004;28;46961;-84
2021/08/11 02:10:49;;;;;;;;;2.00;2.00;;;;;;;;5069469;28;45449;-85
2021/08/11 02:13:17;;;;;;;;;1.50;1.00;;;;;;;;5081630;28;44756;-84
2021/08/11 02:15:42;;;;;;;;;2.25;2.00;;;;;;;;5089373;28;45230;-84
2021/08/11 02:18:08;;;;;;;;;2.00;2.00;;;;;;;;5083233;28;45449;-85
2021/08/11 02:20:33;;;;;;;;;2.50;2.00;;;;;;;;5084154;28;45273;-85
2021/08/11 02:22:59;;;;;;;;;2.00;2.00;;;;;;;;5081519;28;45630;-85
2021/08/11 02:25:24;;;;;;;;;5.00;2.00;;;;;;;;5075708;28;45309;-84
2021/08/11 02:27:51;;;;;;;;;2.00;2.00;;;;;;;;5076877;28;45428;-84
2021/08/11 02:30:20;;;;;;;;;1.25;1.25;;;;;;;;5080320;28;45529;-84
2021/08/11 02:32:52;;;;;;;;;2.00;1.25;;;;;;;;5079223;28;45370;-85
2021/08/11 02:35:20;;;;;;;;;1.75;1.75;;;;;;;;5069989;28;45309;-85
2021/08/11 02:38:07;;;;;;;;;2.00;2.00;;;;;;;;5076442;28;45594;-85
2021/08/11 02:40:33;;;;;;;;;5.00;2.00;;;;;;;;5079223;28;45437;-85
2021/08/11 02:43:07;;;;;;;;;1.25;1.25;;;;;;;;5080743;28;45401;-85
2021/08/11 02:45:33;;;;;;;;;2.00;2.00;;;;;;;;5079285;28;45299;-85
2021/08/11 02:48:00;;;;;;;;;1.00;1.00;;;;;;;;5075170;28;46249;-84
2021/08/11 02:50:25;;;;;;;;;1.00;1.00;;;;;;;;5083016;28;45267;-84
2021/08/11 02:52:51;;;;;;;;;2.00;2.00;;;;;;;;5081048;28;45319;-84
2021/08/11 02:55:17;;;;;;;;;4.00;2.00;;;;;;;;5076280;28;45437;-84
2021/08/11 02:57:43;;;;;;;;;2.75;2.25;;;;;;;;5080591;27;45239;-84
2021/08/11 03:00:09;;;;;;;;;1.75;1.75;;;;;;;;5080818;28;45484;-84
2021/08/11 03:02:34;;;;;;;;;2.75;2.75;;;;;;;;5080477;28;45373;-84
2021/08/11 03:05:00;;;;;;;;;2.00;1.00;;;;;;;;5080459;28;45507;-84
2021/08/11 03:07:25;;;;;;;;;2.00;2.00;;;;;;;;5074929;28;46042;-84
2021/08/11 03:09:51;;;;;;;;;2.50;2.50;;;;;;;;5079092;28;45324;-84
2021/08/11 03:12:16;;;;;;;;;3.00;3.00;;;;;;;;5079931;28;45396;-84
2021/08/11 03:14:43;;;;;;;;;4.00;3.00;;;;;;;;5067170;28;46221;-84
2021/08/11 03:17:09;;;;;;;;;2.50;2.50;;;;;;;;5065624;28;45600;-84
2021/08/11 03:19:35;;;;;;;;;3.00;2.00;;;;;;;;5078830;28;45252;-84
2021/08/11 03:22:01;;;;;;;;;3.50;2.00;;;;;;;;5081238;28;45327;-84
2021/08/11 03:24:26;;;;;;;;;3.50;2.00;;;;;;;;5082673;28;45213;-84
2021/08/11 03:26:51;;;;;;;;;3.00;2.00;;;;;;;;5083625;28;45237;-84
2021/08/11 03:29:16;;;;;;;;;3.00;3.00;;;;;;;;5082643;28;45290;-84
2021/08/11 03:31:42;;;;;;;;;1.00;1.00;;;;;;;;5079110;28;45325;-84
2021/08/11 03:34:07;;;;;;;;;2.00;2.00;;;;;;;;5079503;28;45294;-84
2021/08/11 03:36:33;;;;;;;;;2.00;2.00;;;;;;;;5087125;28;46242;-84
2021/08/11 03:38:59;;;;;;;;;1.00;1.00;;;;;;;;5084017;28;45697;-84
2021/08/11 03:41:24;;;;;;;;;3.00;1.50;;;;;;;;5086145;28;45365;-84
2021/08/11 03:43:49;;;;;;;;;2.00;2.00;;;;;;;;5083244;28;45448;-84
2021/08/11 03:46:14;;;;;;;;;1.00;1.00;;;;;;;;5083479;28;45406;-84
2021/08/11 03:48:40;;;;;;;;;1.50;1.50;;;;;;;;5083232;28;45352;-84
2021/08/11 03:51:05;;;;;;;;;1.00;1.00;;;;;;;;5083788;28;45188;-84
2021/08/11 03:53:30;;;;;;;;;2.00;1.00;;;;;;;;5079498;28;45305;-84
2021/08/11 03:55:55;;;;;;;;;1.25;1.25;;;;;;;;5083254;28;45906;-84
2021/08/11 03:58:20;;;;;;;;;2.67;2.00;;;;;;;;5076924;28;45516;-84
2021/08/11 04:00:46;;;;;;;;;2.00;2.00;;;;;;;;5077029;28;45365;-84
2021/08/11 04:03:11;;;;;;;;;2.50;2.25;;;;;;;;5074853;28;45416;-84
2021/08/11 04:05:36;;;;;;;;;2.33;2.33;;;;;;;;5077850;28;45452;-84
2021/08/11 04:08:01;;;;;;;;;3.00;2.00;;;;;;;;5083202;28;45330;-84
2021/08/11 04:10:27;;;;;;;;;2.25;2.25;;;;;;;;5080482;28;45440;-84
2021/08/11 04:12:52;;;;;;;;;4.00;2.33;;;;;;;;5067321;28;45334;-84
2021/08/11 04:15:17;;;;;;;;;1.33;1.33;;;;;;;;5083402;28;45408;-84
2021/08/11 04:17:42;;;;;;;;;2.00;2.00;;;;;;;;5086509;28;44692;-84
2021/08/11 04:20:08;;;;;;;;;2.25;2.25;;;;;;;;5082206;28;45440;-83
2021/08/11 04:22:33;;;;;;;;;1.25;1.25;;;;;;;;5082650;28;45413;-84
2021/08/11 04:24:58;;;;;;;;;1.33;1.33;;;;;;;;5082514;28;46031;-84
2021/08/11 04:27:24;;;;;;;;;1.00;1.00;;;;;;;;5082846;28;45365;-84
2021/08/11 04:29:49;;;;;;;;;1.00;1.00;;;;;;;;5066249;28;45489;-84
2021/08/11 04:32:14;;;;;;;;;1.00;1.00;;;;;;;;5071112;28;45478;-84
2021/08/11 04:34:39;;;;;;;;;1.00;1.00;;;;;;;;5082555;28;46387;-84
2021/08/11 04:37:06;;;;;;;;;1.00;1.00;;;;;;;;5078577;28;45361;-84
2021/08/11 04:39:31;;;;;;;;;1.00;1.00;;;;;;;;5075211;28;45345;-84
2021/08/11 04:41:57;;;;;;;;;3.25;1.50;;;;;;;;5073766;28;45554;-84
2021/08/11 04:44:22;;;;;;;;;3.00;2.00;;;;;;;;5080972;28;47021;-84
2021/08/11 04:46:47;;;;;;;;;3.00;1.33;;;;;;;;5070168;28;45997;-84
2021/08/11 04:49:12;;;;;;;;;1.50;1.50;;;;;;;;5081640;28;45211;-84
2021/08/11 04:51:38;;;;;;;;;3.67;2.00;;;;;;;;5082645;28;45248;-84
2021/08/11 04:54:03;;;;;;;;;3.00;3.00;;;;;;;;5081994;28;45285;-84
2021/08/11 04:56:28;;;;;;;;;2.75;1.50;;;;;;;;5081796;28;45294;-84
2021/08/11 04:58:54;;;;;;;;;4.33;1.00;;;;;;;;5067235;28;45528;-85
2021/08/11 05:01:19;;;;;;;;;2.00;2.00;;;;;;;;5068738;28;45456;-84
2021/08/11 05:03:44;;;;;;;;;2.00;1.00;;;;;;;;5085641;28;45292;-85
2021/08/11 05:06:09;;;;;;;;;2.00;2.00;;;;;;;;5079602;28;45361;-85
2021/08/11 05:08:35;;;;;;;;;4.25;1.00;;;;;;;;5074564;28;45587;-85
2021/08/11 05:11:01;;;;;;;;;3.50;2.00;;;;;;;;5075057;28;45640;-85
2021/08/11 05:13:26;;;;;;;;;4.50;2.25;;;;;;;;5081957;28;45638;-85
2021/08/11 05:15:51;;;;;;;;;4.75;3.00;;;;;;;;5079736;28;45886;-85
2021/08/11 05:18:17;;;;;;;;;2.33;2.33;;;;;;;;5081013;28;45627;-85
2021/08/11 05:20:42;;;;;;;;;2.67;1.67;;;;;;;;5087959;28;45236;-84
2021/08/11 05:23:07;;;;;;;;;3.00;3.00;;;;;;;;5099719;28;45349;-85
2021/08/11 05:25:32;;;;;;;;;3.75;3.25;;;;;;;;5086282;28;45330;-85
2021/08/11 05:27:58;;;;;;;;;1.00;1.00;;;;;;;;5075884;28;45552;-85
2021/08/11 05:30:23;;;;;;;;;2.00;2.00;;;;;;;;5083367;28;45644;-85
2021/08/11 05:32:48;;;;;;;;;4.33;3.67;;;;;;;;5082107;28;46539;-85
2021/08/11 05:35:13;;;;;;;;;2.00;2.00;;;;;;;;5082273;28;45424;-85
2021/08/11 05:37:39;;;;;;;;;3.00;2.00;;;;;;;;5073924;28;45453;-85
2021/08/11 05:40:05;;;;;;;;;4.00;3.00;;;;;;;;5080946;28;45311;-85
2021/08/11 05:42:30;;;;;;;;;3.00;3.00;;;;;;;;5067002;28;46017;-84
2021/08/11 05:44:55;;;;;;;;;3.00;3.00;;;;;;;;5080622;28;46216;-85
2021/08/11 05:47:20;;;;;;;;;3.00;2.33;;;;;;;;5079687;28;45370;-85
2021/08/11 05:49:46;;;;;;;;;2.00;2.00;;;;;;;;5081412;28;45210;-85
2021/08/11 05:52:11;;;;;;;;;3.00;3.00;;;;;;;;5080115;28;47402;-85
2021/08/11 05:54:36;;;;;;;;;3.00;3.00;;;;;;;;5082313;28;45228;-85
2021/08/11 05:57:02;;;;;;;;;3.00;3.00;;;;;;;;5079565;28;45199;-85
2021/08/11 05:59:28;;;;;;;;;4.50;4.50;;;;;;;;5079670;28;45524;-85
2021/08/11 06:01:53;;;;;;;;;4.00;4.00;;;;;;;;5079818;28;45443;-85
2021/08/11 06:04:20;;;;;;;;;3.33;2.67;;;;;;;;5077401;28;45287;-85
2021/08/11 06:06:45;;;;;;;;;5.75;4.75;;;;;;;;5081831;28;45336;-85
2021/08/11 06:09:11;;;;;;;;;3.00;3.00;;;;;;;;5071721;28;45365;-85
2021/08/11 06:11:36;;;;;;;;;3.25;3.25;;;;;;;;5065349;28;45394;-85
2021/08/11 06:14:01;;;;;;;;;2.00;2.00;;;;;;;;5073350;28;45845;-85
2021/08/11 06:16:26;;;;;;;;;5.67;4.00;;;;;;;;5074426;28;45552;-85
2021/08/11 06:18:55;;;;;;;;;2.00;2.00;;;;;;;;5081225;28;45613;-85
2021/08/11 06:21:20;;;;;;;;;6.00;4.00;;;;;;;;5079897;28;46036;-85
2021/08/11 06:23:45;;;;;;;;;4.00;4.00;;;;;;;;5079079;28;45436;-85
2021/08/11 06:26:10;;;;;;;;;5.00;4.00;;;;;;;;5076146;28;45334;-85
2021/08/11 06:28:36;;;;;;;;;4.00;3.00;;;;;;;;5076097;28;45886;-83
2021/08/11 06:31:01;;;;;;;;;5.25;5.25;;;;;;;;5084970;28;46244;-83
2021/08/11 06:33:26;;;;;;;;;3.00;3.00;;;;;;;;5084908;28;45353;-83
2021/08/11 06:35:51;;;;;;;;;5.00;5.00;;;;;;;;5070296;28;44614;-84
2021/08/11 06:38:17;;;;;;;;;3.00;3.00;;;;;;;;5083356;28;45315;-84
2021/08/11 06:40:43;;;;;;;;;6.00;5.00;;;;;;;;5080272;28;45359;-84
2021/08/11 06:43:08;;;;;;;;;5.25;5.25;;;;;;;;5079138;28;45483;-83
2021/08/11 06:45:34;;;;;;;;;5.00;5.00;;;;;;;;5072632;28;45668;-84
2021/08/11 06:47:59;;;;;;;;;6.00;4.00;;;;;;;;5080645;28;45341;-84
2021/08/11 06:50:25;;;;;;;;;5.00;5.00;;;;;;;;5073573;28;47188;-84
2021/08/11 06:52:51;;;;;;;;;8.75;4.00;;;;;;;;5077721;28;45552;-84
2021/08/11 06:55:17;;;;;;;;;5.00;5.00;;;;;;;;5077826;28;45377;-83
2021/08/11 06:57:44;;;;;;;;;4.75;4.75;;;;;;;;5066172;27;45355;-84
2021/08/11 07:00:10;;;;;;;;;4.50;4.00;;;;;;;;5079859;27;46485;-84
2021/08/11 07:02:35;;;;;;;;;6.00;4.00;;;;;;;;5076568;27;45632;-83
2021/08/11 07:05:00;;;;;;;;;4.50;3.00;;;;;;;;5070266;28;45469;-84
2021/08/11 07:07:26;;;;;;;;;3.00;3.00;;;;;;;;5075075;28;45453;-84
2021/08/11 07:09:52;;;;;;;;;3.75;3.00;;;;;;;;5075803;27;46141;-84
2021/08/11 07:12:17;;;;;;;;;3.00;3.00;;;;;;;;5077223;27;45389;-84
2021/08/11 07:14:45;;;;;;;;;3.00;3.00;;;;;;;;5077070;28;45566;-85
2021/08/11 07:17:10;;;;;;;;;3.00;3.00;;;;;;;;5074468;28;45450;-85
2021/08/11 07:19:37;;;;;;;;;6.00;2.50;;;;;;;;5076384;28;47765;-85
2021/08/11 07:22:03;;;;;;;;;3.00;3.00;;;;;;;;5078355;28;45519;-85
2021/08/11 07:24:28;;;;;;;;;7.00;5.00;;;;;;;;5079130;28;45614;-85
2021/08/11 07:26:53;;;;;;;;;5.25;3.00;;;;;;;;5078087;28;45469;-85
2021/08/11 07:29:18;;;;;;;;;6.75;4.00;;;;;;;;5078828;28;46174;-86
2021/08/11 07:31:44;;;;;;;;;3.00;3.00;;;;;;;;5077252;28;45464;-86
2021/08/11 07:34:09;;;;;;;;;4.00;4.00;;;;;;;;5076951;28;45343;-85
2021/08/11 07:36:34;;;;;;;;;8.67;4.00;;;;;;;;5076981;28;45422;-85
2021/08/11 07:38:59;;;;;;;;;6.00;4.00;;;;;;;;5076963;28;45380;-85
2021/08/11 07:41:25;;;;;;;;;5.00;4.00;;;;;;;;5076201;28;45434;-86
2021/08/11 07:43:50;;;;;;;;;5.75;4.25;;;;;;;;5075566;28;45685;-85
2021/08/11 07:46:16;;;;;;;;;6.00;3.25;;;;;;;;5077937;28;45234;-85
2021/08/11 07:48:42;;;;;;;;;3.75;3.75;;;;;;;;5076833;28;45235;-85
2021/08/11 07:51:07;;;;;;;;;5.50;3.50;;;;;;;;5076217;28;45280;-85
2021/08/11 07:53:32;;;;;;;;;3.00;3.00;;;;;;;;5076910;28;45388;-86
2021/08/11 07:55:57;;;;;;;;;4.75;3.00;;;;;;;;5074949;28;46305;-85
2021/08/11 07:58:24;;;;;;;;;5.00;4.75;;;;;;;;5072621;28;48073;-86
2021/08/11 08:00:50;;;;;;;;;3.50;3.00;;;;;;;;5075067;28;45455;-86
2021/08/11 08:03:16;;;;;;;;;2.75;2.75;;;;;;;;5077237;27;45342;-86
2021/08/11 08:05:41;;;;;;;;;1.75;1.25;;;;;;;;5085223;27;45374;-86
2021/08/11 08:08:06;;;;;;;;;5.50;3.00;;;;;;;;5081140;27;48013;-86
2021/08/11 08:10:31;;;;;;;;;4.00;3.00;;;;;;;;5076715;28;45791;-87
2021/08/11 08:12:57;;;;;;;;;6.00;4.33;;;;;;;;5078807;27;45409;-86
2021/08/11 08:15:23;;;;;;;;;6.50;4.00;;;;;;;;5080584;27;45382;-86
2021/08/11 08:17:48;;;;;;;;;3.75;3.00;;;;;;;;5084782;27;46583;-86
2021/08/11 08:20:18;;;;;;;;;4.75;4.00;;;;;;;;5071769;28;45426;-86
2021/08/11 08:22:43;;;;;;;;;3.50;3.50;;;;;;;;5080825;27;45423;-86
2021/08/11 08:25:09;;;;;;;;;11.50;5.75;;;;;;;;5081118;28;45757;-88
2021/08/11 08:27:34;;;;;;;;;4.50;4.50;;;;;;;;5076499;27;48643;-87
2021/08/11 08:30:00;;;;;;;;;5.67;4.67;;;;;;;;5089583;28;44860;-84
2021/08/11 08:32:30;;;;;;;;;3.25;3.00;;;;;;;;5093761;28;45587;-86
2021/08/11 08:34:56;;;;;;;;;5.00;4.00;;;;;;;;5094042;28;45303;-86
2021/08/11 08:37:31;;;;;;;;;6.75;3.75;;;;;;;;5086287;28;46054;-86
2021/08/11 08:39:56;;;;;;;;;4.50;3.25;;;;;;;;5080098;28;45444;-88
2021/08/11 08:42:22;;;;;;;;;6.75;5.00;;;;;;;;5076564;28;45476;-88
2021/08/11 08:44:47;;;;;;;;;3.75;3.75;;;;;;;;5077101;28;45693;-86
2021/08/11 08:47:13;;;;;;;;;5.75;4.25;;;;;;;;5080335;28;45814;-87
2021/08/11 08:49:39;;;;;;;;;4.00;2.50;;;;;;;;5080206;27;45781;-86
2021/08/11 08:52:05;;;;;;;;;2.50;2.50;;;;;;;;5085088;27;46732;-87
2021/08/11 08:54:30;;;;;;;;;6.00;4.50;;;;;;;;5087450;27;46104;-86
2021/08/11 08:56:56;;;;;;;;;12.75;7.25;;;;;;;;5081883;27;45403;-87
2021/08/11 08:59:21;;;;;;;;;3.75;3.00;;;;;;;;5083317;27;45470;-87
2021/08/11 09:01:46;;;;;;;;;4.00;4.00;;;;;;;;5085183;27;45776;-86
2021/08/11 09:04:11;;;;;;;;;2.33;2.33;;;;;;;;5087980;27;45472;-88
2021/08/11 09:06:37;;;;;;;;;6.50;5.00;;;;;;;;5081574;28;45479;-86
2021/08/11 09:09:04;;;;;;;;;19.25;10.00;;;;;;;;5081114;28;45482;-87
2021/08/11 09:11:29;;;;;;;;;11.00;7.25;;;;;;;;5078755;27;45488;-86
2021/08/11 09:14:13;;;;;;;;;17.33;14.00;;;;;;;;5078911;28;45477;-85
2021/08/11 09:16:45;;;;;;;;;29.75;25.50;;;;;;;;5077735;28;45452;-83
2021/08/11 09:19:11;;;;;;;;;15.50;13.25;;;;;;;;5074940;28;45432;-87
2021/08/11 09:21:36;;;;;;;;;9.50;7.25;;;;;;;;5077836;28;45523;-88
2021/08/11 09:24:15;;;;;;;;;48.33;38.00;;;;;;;;5078698;27;45488;-83
2021/08/11 09:26:40;;;;;;;;;26.00;20.00;;;;;;;;5078887;28;45471;-86
2021/08/11 09:29:06;;;;;;;;;7.75;6.75;;;;;;;;5079822;28;45341;-85
2021/08/11 09:31:31;;;;;;;;;8.75;6.25;;;;;;;;5077782;28;45291;-82
2021/08/11 09:33:58;;;;;;;;;7.50;6.00;;;;;;;;5078605;28;45959;-87
2021/08/11 09:36:24;;;;;;;;;5.75;4.50;;;;;;;;5078700;28;48504;-85
2021/08/11 09:38:53;;;;;;;;;4.50;4.25;;;;;;;;5077799;28;45392;-83
2021/08/11 09:41:18;;;;;;;;;5.25;4.50;;;;;;;;5079687;27;45326;-83
2021/08/11 09:43:43;;;;;;;;;4.00;4.00;;;;;;;;5080665;27;45463;-84
2021/08/11 09:46:09;;;;;;;;;7.67;6.33;;;;;;;;5078323;28;46596;-84
2021/08/11 09:48:41;;;;;;;;;5.00;4.50;;;;;;;;5077777;28;45468;-83
2021/08/11 09:51:08;;;;;;;;;6.50;4.25;;;;;;;;5075242;28;45452;-83
2021/08/11 09:53:37;;;;;;;;;5.50;5.50;;;;;;;;5074824;28;45532;-83
2021/08/11 09:56:06;;;;;;;;;6.75;6.00;;;;;;;;5074858;27;45435;-83
2021/08/11 09:58:36;;;;;;;;;5.00;5.00;;;;;;;;5077311;28;45544;-84
2021/08/11 10:01:02;;;;;;;;;8.75;7.25;;;;;;;;5072186;27;45422;-84
2021/08/11 10:03:27;;;;;;;;;4.75;4.75;;;;;;;;5074832;28;45562;-84
2021/08/11 10:05:53;;;;;;;;;6.25;4.50;;;;;;;;5076695;27;47222;-83
2021/08/11 10:08:45;;;;;;;;;6.75;5.25;;;;;;;;5076042;28;45433;-84
2021/08/11 10:11:10;;;;;;;;;8.00;5.25;;;;;;;;5073227;28;45617;-83
2021/08/11 10:13:39;;;;;;;;;6.25;5.00;;;;;;;;5076845;28;45406;-83
2021/08/11 10:16:06;;;;;;;;;6.50;5.50;;;;;;;;5075258;28;46248;-84
2021/08/11 10:18:34;;;;;;;;;6.25;4.75;;;;;;;;5075898;28;45332;-83
2021/08/11 10:21:00;;;;;;;;;5.25;5.25;;;;;;;;5076635;28;45481;-84
2021/08/11 10:23:26;;;;;;;;;4.00;4.00;;;;;;;;5076721;28;45795;-83
2021/08/11 10:25:51;;;;;;;;;4.25;4.25;;;;;;;;5075324;28;47117;-83
2021/08/11 10:28:17;;;;;;;;;6.75;5.75;;;;;;;;5077985;28;45579;-83
2021/08/11 10:30:43;;;;;;;;;6.25;5.25;;;;;;;;5076355;28;46386;-83
2021/08/11 10:33:08;;;;;;;;;6.50;6.00;;;;;;;;5075466;28;45425;-83
2021/08/11 10:35:33;;;;;;;;;6.75;6.75;;;;;;;;5074916;28;46099;-82
2021/08/11 10:37:59;;;;;;;;;5.75;5.75;;;;;;;;5073603;28;46484;-84
2021/08/11 10:40:25;;;;;;;;;5.75;5.50;;;;;;;;5077339;28;45858;-83
2021/08/11 10:42:55;;;;;;;;;4.50;4.50;;;;;;;;5072682;28;45467;-83
2021/08/11 10:45:21;;;;;;;;;7.50;6.00;;;;;;;;5071865;28;47038;-83
2021/08/11 10:47:46;;;;;;;;;4.00;4.00;;;;;;;;5076367;28;45656;-83
2021/08/11 10:50:13;;;;;;;;;6.75;4.50;;;;;;;;5077401;28;45416;-84
2021/08/11 10:52:38;;;;;;;;;3.25;3.25;;;;;;;;5074219;28;45366;-83
2021/08/11 10:55:05;;;;;;;;;6.50;4.25;;;;;;;;5076843;27;45476;-83
2021/08/11 10:57:42;;;;;;;;;6.75;5.25;;;;;;;;5073747;28;45581;-83
2021/08/11 11:00:08;;;;;;;;;6.50;6.00;;;;;;;;5076674;28;45457;-83
2021/08/11 11:02:33;;;;;;;;;5.50;5.25;;;;;;;;5074457;28;45752;-84
2021/08/11 11:04:59;;;;;;;;;5.00;5.00;;;;;;;;5072890;28;46835;-83
2021/08/11 11:07:24;;;;;;;;;5.25;5.25;;;;;;;;5075830;28;45392;-83
2021/08/11 11:10:09;;;;;;;;;6.25;5.50;;;;;;;;5081057;27;45678;-82
2021/08/11 11:12:35;;;;;;;;;7.00;5.00;;;;;;;;5074339;27;45425;-83
2021/08/11 11:15:01;;;;;;;;;6.33;6.33;;;;;;;;5078463;28;46343;-82
2021/08/11 11:17:26;;;;;;;;;6.50;6.00;;;;;;;;5073034;28;45271;-83
2021/08/11 11:22:33;;;;;;;;;6.00;5.75;;;;;;;;5076504;28;45601;-83
2021/08/11 11:24:59;;;;;;;;;8.00;5.50;;;;;;;;5069089;28;46137;-82
2021/08/11 11:27:43;;;;;;;;;4.75;4.75;;;;;;;;5069986;28;45483;-83
2021/08/11 11:30:09;;;;;;;;;4.00;4.00;;;;;;;;5072056;28;45587;-83
2021/08/11 11:32:35;;;;;;;;;6.75;6.75;;;;;;;;5075920;28;45354;-83
2021/08/11 11:35:15;;;;;;;;;8.00;5.50;;;;;;;;5077575;28;46701;-83
2021/08/11 11:37:41;;;;;;;;;7.00;6.25;;;;;;;;5075083;28;45447;-84
2021/08/11 11:40:07;;;;;;;;;6.75;6.75;;;;;;;;5077899;28;45524;-83
2021/08/11 11:42:32;;;;;;;;;9.25;7.75;;;;;;;;5076565;27;45456;-84
2021/08/11 11:44:58;;;;;;;;;5.75;5.75;;;;;;;;5076856;28;47058;-83
2021/08/11 11:47:46;;;;;;;;;6.75;4.75;;;;;;;;5071855;27;46243;-83
2021/08/11 11:50:20;;;;;;;;;6.00;6.00;;;;;;;;5076639;28;45388;-83
2021/08/11 11:52:56;;;;;;;;;6.00;6.00;;;;;;;;5076550;27;45622;-83
2021/08/11 11:55:28;;;;;;;;;8.50;6.00;;;;;;;;5079434;27;45923;-83
2021/08/11 11:57:54;;;;;;;;;6.00;6.00;;;;;;;;5076525;27;45396;-83
2021/08/11 12:00:19;;;;;;;;;10.00;6.50;;;;;;;;5075857;27;45351;-83
2021/08/11 12:02:48;;;;;;;;;5.67;5.67;;;;;;;;5075544;28;45369;-83
2021/08/11 12:05:13;;;;;;;;;6.00;6.00;;;;;;;;5079951;28;47500;-83
2021/08/11 12:07:39;;;;;;;;;5.50;5.50;;;;;;;;5076252;28;45442;-82
2021/08/11 12:10:05;;;;;;;;;9.00;7.00;;;;;;;;5080670;28;45459;-83
2021/08/11 12:12:30;;;;;;;;;5.75;5.00;;;;;;;;5079141;27;45480;-82
2021/08/11 12:15:18;;;;;;;;;7.00;7.00;;;;;;;;5079231;28;46183;-82
2021/08/11 12:17:44;;;;;;;;;9.00;5.50;;;;;;;;5078180;28;46196;-82
2021/08/11 12:20:24;;;;;;;;;7.75;6.00;;;;;;;;5079055;28;45461;-82
2021/08/11 12:22:50;;;;;;;;;7.75;4.75;;;;;;;;5077090;28;45594;-82
2021/08/11 12:25:21;;;;;;;;;4.25;4.25;;;;;;;;5079192;28;46080;-82
2021/08/11 12:28:06;;;;;;;;;5.50;5.50;;;;;;;;5079570;28;45588;-82
2021/08/11 12:30:32;;;;;;;;;6.50;6.50;;;;;;;;5079841;28;46568;-82
2021/08/11 12:32:57;;;;;;;;;6.25;5.00;;;;;;;;5079821;28;45877;-82
2021/08/11 12:35:22;;;;;;;;;7.50;6.00;;;;;;;;5078771;28;47297;-82
2021/08/11 12:37:48;;;;;;;;;4.00;3.25;;;;;;;;5076934;28;45652;-82
2021/08/11 12:40:30;;;;;;;;;6.50;4.75;;;;;;;;5071505;28;45369;-83
2021/08/11 12:42:56;;;;;;;;;7.25;5.75;;;;;;;;5072892;28;45832;-82
2021/08/11 12:45:22;;;;;;;;;6.50;5.00;;;;;;;;5076211;27;45263;-82
2021/08/11 12:47:47;;;;;;;;;4.75;3.75;;;;;;;;5076777;28;45482;-82
2021/08/11 12:50:20;;;;;;;;;5.75;5.25;;;;;;;;5080139;28;45522;-82
2021/08/11 12:52:52;;;;;;;;;3.50;3.50;;;;;;;;5070670;28;46142;-82
2021/08/11 12:55:29;;;;;;;;;6.00;4.25;;;;;;;;5077697;28;46466;-83
2021/08/11 12:57:54;;;;;;;;;5.00;4.25;;;;;;;;5077520;28;45597;-83
2021/08/11 13:00:36;;;;;;;;;4.00;4.00;;;;;;;;5074407;28;45607;-82
2021/08/11 13:03:02;;;;;;;;;5.00;4.50;;;;;;;;5077740;28;45452;-82
2021/08/11 13:05:27;;;;;;;;;4.00;4.00;;;;;;;;5080223;27;45341;-82
2021/08/11 13:07:53;;;;;;;;;3.75;3.75;;;;;;;;5073351;28;45434;-84
2021/08/11 13:10:20;;;;;;;;;3.75;3.75;;;;;;;;5078883;28;45380;-84
2021/08/11 13:12:45;;;;;;;;;5.00;4.25;;;;;;;;5080555;27;45532;-84
2021/08/11 13:15:25;;;;;;;;;5.50;5.00;;;;;;;;5084933;27;45327;-83
2021/08/11 13:17:55;;;;;;;;;6.00;5.00;;;;;;;;5078416;27;45536;-84
2021/08/11 13:20:21;;;;;;;;;5.00;4.25;;;;;;;;5078786;27;45513;-83
2021/08/11 13:22:48;;;;;;;;;5.25;5.25;;;;;;;;5082345;27;45399;-84
2021/08/11 13:25:14;;;;;;;;;5.00;4.75;;;;;;;;5073234;27;45453;-83
2021/08/11 13:27:39;;;;;;;;;4.00;4.00;;;;;;;;5077460;27;45309;-83
2021/08/11 13:30:05;;;;;;;;;7.25;4.75;;;;;;;;5070868;28;45450;-83
2021/08/11 13:32:32;;;;;;;;;3.75;3.50;;;;;;;;5074731;28;45588;-83
2021/08/11 13:34:57;;;;;;;;;6.25;5.00;;;;;;;;5076816;28;48266;-83
2021/08/11 13:37:23;;;;;;;;;3.75;3.75;;;;;;;;5075729;28;45487;-83
2021/08/11 13:39:48;;;;;;;;;8.00;4.00;;;;;;;;5081022;27;45448;-88
2021/08/11 13:42:13;;;;;;;;;5.00;5.00;;;;;;;;5070868;27;45431;-83
2021/08/11 13:44:38;;;;;;;;;4.00;3.00;;;;;;;;5080441;28;45572;-83
2021/08/11 13:47:04;;;;;;;;;5.67;4.00;;;;;;;;5079860;28;45591;-83
2021/08/11 13:49:29;;;;;;;;;6.50;4.75;;;;;;;;5067301;28;45351;-84
2021/08/11 13:51:55;;;;;;;;;3.75;3.75;;;;;;;;5079555;28;45329;-84
2021/08/11 13:54:23;;;;;;;;;4.50;4.00;;;;;;;;5070478;28;47332;-83
2021/08/11 13:56:51;;;;;;;;;4.00;2.25;;;;;;;;5080522;27;45297;-84
2021/08/11 13:59:17;;;;;;;;;7.00;5.00;;;;;;;;5060948;28;45282;-84
2021/08/11 14:01:42;;;;;;;;;5.00;5.00;;;;;;;;5061100;28;45696;-83
2021/08/11 14:04:07;;;;;;;;;5.00;4.00;;;;;;;;5061044;28;46090;-84
2021/08/11 14:06:32;;;;;;;;;8.00;5.75;;;;;;;;5059735;28;45463;-84
2021/08/11 14:08:58;;;;;;;;;7.00;4.00;;;;;;;;5061382;28;45376;-88
2021/08/11 14:11:23;;;;;;;;;6.67;5.00;;;;;;;;5065882;28;45537;-82
2021/08/11 14:13:49;;;;;;;;;6.50;4.50;;;;;;;;5071006;28;45452;-84
2021/08/11 14:16:14;;;;;;;;;6.00;5.00;;;;;;;;5068126;28;45346;-83
2021/08/11 14:18:39;;;;;;;;;5.00;3.50;;;;;;;;5061416;27;45252;-83
2021/08/11 14:21:04;;;;;;;;;6.33;4.00;;;;;;;;5090924;27;45753;-83
2021/08/11 14:23:30;;;;;;;;;6.00;4.00;;;;;;;;5078781;27;45977;-83
2021/08/11 14:25:55;;;;;;;;;5.33;5.33;;;;;;;;5091165;27;45275;-82
2021/08/11 14:28:20;;;;;;;;;7.33;6.00;;;;;;;;5085826;27;45547;-82
2021/08/11 14:30:45;;;;;;;;;6.75;6.50;;;;;;;;5079809;28;45406;-82
2021/08/11 14:33:10;;;;;;;;;5.50;4.75;;;;;;;;5078243;28;47149;-82
2021/08/11 14:35:36;;;;;;;;;4.33;4.33;;;;;;;;5072233;28;45709;-82
2021/08/11 14:38:01;;;;;;;;;4.50;3.75;;;;;;;;5059602;28;45339;-83
2021/08/11 14:40:26;;;;;;;;;5.00;5.00;;;;;;;;5073869;27;45343;-83
2021/08/11 14:42:51;;;;;;;;;4.67;3.67;;;;;;;;5059632;28;46655;-82